createdAt,value
2018-07-22T00:01:41.720Z,6.30
2018-07-22T00:04:09.258Z,6.33
2018-07-22T00:06:36.654Z,6.40
2018-07-22T00:09:06.184Z,6.50
2018-07-22T00:11:33.505Z,5.87
2018-07-22T00:14:00.846Z,5.47
2018-07-22T00:16:28.140Z,6.13
2018-07-22T00:18:55.453Z,5.97
2018-07-22T00:21:22.824Z,5.80
2018-07-22T00:23:50.213Z,5.87
2018-07-22T00:26:17.525Z,6.07
2018-07-22T00:28:44.828Z,5.90
2018-07-22T00:31:12.140Z,6.27
2018-07-22T00:33:39.440Z,6.13
2018-07-22T00:36:06.866Z,5.70
2018-07-22T00:38:34.209Z,5.63
2018-07-22T00:41:01.544Z,5.73
2018-07-22T00:43:28.915Z,5.40
2018-07-22T00:45:56.282Z,6.10
2018-07-22T00:48:23.599Z,6.07
2018-07-22T00:50:50.913Z,6.30
2018-07-22T00:53:18.225Z,6.43
2018-07-22T00:55:45.592Z,5.77
2018-07-22T00:58:12.873Z,6.17
2018-07-22T01:00:40.225Z,6.57
2018-07-22T01:03:07.538Z,5.93
2018-07-22T01:05:34.869Z,6.33
2018-07-22T01:08:02.196Z,6.50
2018-07-22T01:10:29.532Z,6.20
2018-07-22T01:12:56.824Z,6.43
2018-07-22T01:15:24.149Z,6.07
2018-07-22T01:17:51.459Z,5.93
2018-07-22T01:20:18.764Z,6.03
2018-07-22T01:22:46.063Z,6.07
2018-07-22T01:25:13.396Z,6.50
2018-07-22T01:27:40.695Z,6.50
2018-07-22T01:30:09.096Z,6.37
2018-07-22T01:32:36.421Z,6.97
2018-07-22T01:35:03.772Z,6.97
2018-07-22T01:37:31.065Z,7.30
2018-07-22T01:39:58.380Z,7.00
2018-07-22T01:42:25.703Z,6.77
2018-07-22T01:44:53.047Z,7.50
2018-07-22T01:47:20.394Z,7.63
2018-07-22T01:49:47.814Z,7.00
2018-07-22T01:52:15.370Z,6.77
2018-07-22T01:54:42.722Z,7.00
2018-07-22T01:57:10.043Z,6.80
2018-07-22T01:59:37.596Z,6.83
2018-07-22T02:02:05.005Z,7.13
2018-07-22T02:04:32.337Z,7.27
2018-07-22T02:06:59.628Z,6.73
2018-07-22T02:09:26.904Z,6.17
2018-07-22T02:11:54.257Z,6.83
2018-07-22T02:14:21.771Z,6.87
2018-07-22T02:16:49.080Z,7.30
2018-07-22T02:19:16.352Z,7.23
2018-07-22T02:21:43.658Z,7.23
2018-07-22T02:24:10.958Z,7.47
2018-07-22T02:26:38.280Z,7.07
2018-07-22T02:29:05.744Z,7.47
2018-07-22T02:31:33.111Z,6.80
2018-07-22T02:34:00.402Z,7.77
2018-07-22T02:36:27.737Z,7.70
2018-07-22T02:38:55.013Z,7.20
2018-07-22T02:41:22.328Z,6.63
2018-07-22T02:43:49.631Z,7.60
2018-07-22T02:46:16.955Z,7.40
2018-07-22T02:48:44.233Z,7.80
2018-07-22T02:51:11.585Z,7.43
2018-07-22T02:53:38.917Z,7.10
2018-07-22T02:56:06.219Z,7.50
2018-07-22T02:58:33.593Z,6.87
2018-07-22T03:01:01.017Z,7.33
2018-07-22T03:03:28.368Z,7.60
2018-07-22T03:05:55.702Z,7.60
2018-07-22T03:08:23.028Z,7.00
2018-07-22T03:10:50.340Z,7.67
2018-07-22T03:13:17.653Z,7.63
2018-07-22T03:15:44.987Z,6.70
2018-07-22T03:18:12.341Z,7.53
2018-07-22T03:20:39.636Z,7.33
2018-07-22T03:23:06.948Z,7.62
2018-07-22T03:25:34.219Z,7.00
2018-07-22T03:28:01.515Z,7.37
2018-07-22T03:30:28.804Z,7.77
2018-07-22T03:32:56.098Z,7.53
2018-07-22T03:35:23.392Z,7.60
2018-07-22T03:37:50.862Z,7.37
2018-07-22T03:40:18.214Z,7.83
2018-07-22T03:42:45.568Z,7.83
2018-07-22T03:45:12.903Z,7.27
2018-07-22T03:47:40.256Z,8.30
2018-07-22T03:50:07.539Z,7.67
2018-07-22T03:52:34.837Z,7.73
2018-07-22T03:55:02.156Z,7.77
2018-07-22T03:57:29.460Z,7.47
2018-07-22T03:59:56.760Z,8.10
2018-07-22T04:02:24.094Z,8.30
2018-07-22T04:04:51.377Z,7.80
2018-07-22T04:07:18.735Z,8.23
2018-07-22T04:09:46.012Z,8.77
2018-07-22T04:12:13.326Z,7.77
2018-07-22T04:14:40.608Z,7.43
2018-07-22T04:17:08.009Z,8.13
2018-07-22T04:19:35.337Z,8.03
2018-07-22T04:22:02.629Z,8.43
2018-07-22T04:24:29.920Z,8.00
2018-07-22T04:26:57.354Z,7.77
2018-07-22T04:29:24.679Z,8.33
2018-07-22T04:31:51.961Z,8.30
2018-07-22T04:34:19.325Z,8.00
2018-07-22T04:36:46.618Z,8.93
2018-07-22T04:39:13.924Z,8.30
2018-07-22T04:41:41.223Z,7.80
2018-07-22T04:44:08.700Z,8.40
2018-07-22T04:46:35.976Z,7.83
2018-07-22T04:49:03.308Z,8.67
2018-07-22T04:51:30.624Z,8.63
2018-07-22T04:53:57.967Z,7.93
2018-07-22T04:56:25.324Z,8.53
2018-07-22T04:58:52.644Z,9.50
2018-07-22T05:01:19.975Z,8.90
2018-07-22T05:03:47.292Z,8.27
2018-07-22T05:06:14.575Z,8.00
2018-07-22T05:08:41.927Z,8.67
2018-07-22T05:11:09.255Z,8.53
2018-07-22T05:13:36.588Z,7.43
2018-07-22T05:16:03.915Z,7.87
2018-07-22T05:18:31.264Z,8.30
2018-07-22T05:20:58.574Z,7.20
2018-07-22T05:23:26.268Z,7.87
2018-07-22T05:25:53.573Z,8.17
2018-07-22T05:28:20.906Z,7.77
2018-07-22T05:30:48.197Z,8.00
2018-07-22T05:33:15.491Z,7.80
2018-07-22T05:35:42.800Z,8.03
2018-07-22T05:38:10.077Z,8.70
2018-07-22T05:40:37.383Z,8.47
2018-07-22T05:43:04.689Z,9.40
2018-07-22T05:45:31.987Z,9.43
2018-07-22T05:47:59.411Z,10.17
2018-07-22T05:50:26.756Z,9.30
2018-07-22T05:52:54.090Z,9.70
2018-07-22T05:55:21.384Z,9.93
2018-07-22T05:57:48.668Z,9.30
2018-07-22T06:00:16.007Z,9.50
2018-07-22T06:02:43.308Z,9.63
2018-07-22T06:05:10.663Z,9.77
2018-07-22T06:07:37.979Z,9.73
2018-07-22T06:10:05.417Z,9.83
2018-07-22T06:12:32.893Z,10.53
2018-07-22T06:15:00.195Z,10.30
2018-07-22T06:17:27.488Z,10.03
2018-07-22T06:19:54.808Z,9.90
2018-07-22T06:22:22.136Z,9.57
2018-07-22T06:24:49.460Z,10.43
2018-07-22T06:27:16.797Z,10.23
2018-07-22T06:29:44.164Z,10.53
2018-07-22T06:32:11.557Z,10.70
2018-07-22T06:34:38.860Z,10.57
2018-07-22T06:37:06.224Z,9.77
2018-07-22T06:39:33.620Z,9.80
2018-07-22T06:42:01.044Z,10.37
2018-07-22T06:44:28.554Z,9.67
2018-07-22T06:46:55.875Z,10.30
2018-07-22T06:49:23.228Z,10.50
2018-07-22T06:51:50.560Z,9.97
2018-07-22T06:54:17.924Z,10.50
2018-07-22T06:56:45.194Z,10.00
2018-07-22T06:59:12.563Z,10.30
2018-07-22T07:01:39.872Z,10.03
2018-07-22T07:04:07.212Z,9.87
2018-07-22T07:06:34.567Z,10.27
2018-07-22T07:09:01.886Z,9.67
2018-07-22T07:11:29.192Z,10.23
2018-07-22T07:13:56.564Z,8.87
2018-07-22T07:16:23.876Z,10.00
2018-07-22T07:18:51.228Z,8.87
2018-07-22T07:21:18.733Z,9.77
2018-07-22T07:23:46.061Z,9.67
2018-07-22T07:26:13.357Z,9.37
2018-07-22T07:28:40.708Z,8.37
2018-07-22T07:31:08.024Z,8.63
2018-07-22T07:33:35.373Z,8.30
2018-07-22T07:36:02.724Z,8.63
2018-07-22T07:38:30.023Z,9.03
2018-07-22T07:40:57.371Z,8.07
2018-07-22T07:43:24.666Z,8.67
2018-07-22T07:45:52.000Z,8.57
2018-07-22T07:48:19.306Z,8.90
2018-07-22T07:50:46.642Z,9.10
2018-07-22T07:53:14.128Z,8.17
2018-07-22T07:55:41.454Z,8.10
2018-07-22T07:58:08.776Z,8.40
2018-07-22T08:00:36.149Z,8.00
2018-07-22T08:03:03.494Z,7.93
2018-07-22T08:05:30.864Z,8.00
2018-07-22T08:07:58.197Z,7.70
2018-07-22T08:10:25.536Z,7.90
2018-07-22T08:12:53.368Z,7.73
2018-07-22T08:15:20.713Z,7.80
2018-07-22T08:17:48.043Z,7.47
2018-07-22T08:20:15.437Z,8.10
2018-07-22T08:22:43.820Z,7.30
2018-07-22T08:25:14.984Z,7.00
2018-07-22T08:27:42.276Z,6.80
2018-07-22T08:30:09.629Z,6.60
2018-07-22T08:32:37.039Z,7.10
2018-07-22T08:35:04.352Z,6.93
2018-07-22T08:37:31.753Z,6.30
2018-07-22T08:39:59.135Z,5.63
2018-07-22T08:42:26.439Z,5.50
2018-07-22T08:44:53.759Z,6.27
2018-07-22T08:47:21.073Z,6.13
2018-07-22T08:49:48.437Z,6.27
2018-07-22T08:52:15.767Z,7.00
2018-07-22T08:54:43.155Z,6.53
2018-07-22T08:57:10.520Z,6.20
2018-07-22T08:59:37.852Z,6.57
2018-07-22T09:02:05.438Z,7.20
2018-07-22T09:04:32.749Z,6.10
2018-07-22T09:07:00.135Z,6.37
2018-07-22T09:09:27.456Z,5.93
2018-07-22T09:11:54.812Z,6.13
2018-07-22T09:14:22.100Z,6.33
2018-07-22T09:16:49.439Z,5.33
2018-07-22T09:19:16.731Z,5.10
2018-07-22T09:21:44.035Z,5.63
2018-07-22T09:24:11.352Z,5.50
2018-07-22T09:26:38.663Z,5.40
2018-07-22T09:29:05.989Z,6.40
2018-07-22T09:31:33.447Z,5.63
2018-07-22T09:34:00.716Z,5.47
2018-07-22T09:36:28.080Z,6.50
2018-07-22T09:38:55.374Z,5.87
2018-07-22T09:41:22.711Z,6.27
2018-07-22T09:43:50.027Z,6.60
2018-07-22T09:46:17.412Z,5.80
2018-07-22T09:48:44.803Z,6.00
2018-07-22T09:51:12.200Z,6.00
2018-07-22T09:53:39.500Z,5.50
2018-07-22T09:56:06.828Z,6.97
2018-07-22T09:58:34.274Z,6.10
2018-07-22T10:01:02.208Z,6.20
2018-07-22T10:03:30.401Z,6.50
2018-07-22T10:05:57.881Z,5.87
2018-07-22T10:08:25.339Z,6.77
2018-07-22T10:10:52.695Z,6.90
2018-07-22T10:13:20.031Z,6.70
2018-07-22T10:15:47.344Z,6.33
2018-07-22T10:18:14.845Z,7.60
2018-07-22T10:20:42.171Z,6.80
2018-07-22T10:23:09.747Z,6.77
2018-07-22T10:25:37.040Z,6.93
2018-07-22T10:28:04.565Z,6.67
2018-07-22T10:30:31.988Z,7.13
2018-07-22T10:32:59.318Z,6.70
2018-07-22T10:35:26.620Z,5.93
2018-07-22T10:37:54.020Z,6.37
2018-07-22T10:40:21.337Z,5.70
2018-07-22T10:42:48.678Z,6.43
2018-07-22T10:45:16.009Z,5.90
2018-07-22T10:47:43.368Z,6.10
2018-07-22T10:50:10.714Z,6.13
2018-07-22T10:52:38.060Z,6.93
2018-07-22T10:55:05.504Z,6.47
2018-07-22T10:57:32.927Z,6.80
2018-07-22T11:00:00.364Z,6.60
2018-07-22T11:02:27.847Z,6.10
2018-07-22T11:04:57.348Z,7.03
2018-07-22T11:07:24.709Z,6.43
2018-07-22T11:09:52.765Z,6.10
2018-07-22T11:12:20.097Z,6.47
2018-07-22T11:14:47.661Z,5.77
2018-07-22T11:17:14.931Z,6.07
2018-07-22T11:19:42.277Z,6.20
2018-07-22T11:22:09.800Z,5.70
2018-07-22T11:24:37.160Z,7.13
2018-07-22T11:27:04.757Z,7.10
2018-07-22T11:29:32.115Z,6.20
2018-07-22T11:32:03.262Z,5.80
2018-07-22T11:34:30.613Z,6.90
2018-07-22T11:36:57.954Z,5.90
2018-07-22T11:39:25.269Z,5.43
2018-07-22T11:41:52.665Z,6.47
2018-07-22T11:44:20.014Z,5.47
2018-07-22T11:46:47.334Z,5.83
2018-07-22T11:49:15.605Z,5.93
2018-07-22T11:51:42.962Z,6.10
2018-07-22T11:54:10.352Z,6.30
2018-07-22T11:56:37.653Z,6.10
2018-07-22T11:59:05.086Z,6.17
2018-07-22T12:01:32.472Z,6.00
2018-07-22T12:03:59.767Z,6.07
2018-07-22T12:06:27.080Z,5.50
2018-07-22T12:08:54.415Z,5.50
2018-07-22T12:11:21.749Z,5.83
2018-07-22T12:13:49.103Z,6.27
2018-07-22T12:16:16.499Z,5.70
2018-07-22T12:18:46.782Z,6.07
2018-07-22T12:21:14.328Z,6.27
2018-07-22T12:23:41.744Z,5.40
2018-07-22T12:26:09.124Z,5.17
2018-07-22T12:28:36.490Z,5.80
2018-07-22T12:31:03.997Z,5.73
2018-07-22T12:33:31.408Z,5.50
2018-07-22T12:35:58.734Z,5.43
2018-07-22T12:38:26.112Z,6.77
2018-07-22T12:40:53.411Z,5.20
2018-07-22T12:43:20.761Z,6.23
2018-07-22T12:45:48.125Z,5.30
2018-07-22T12:48:15.469Z,6.33
2018-07-22T12:50:42.789Z,5.57
2018-07-22T12:53:10.182Z,6.00
2018-07-22T12:55:37.971Z,5.60
2018-07-22T12:58:05.412Z,5.60
2018-07-22T13:00:32.777Z,5.57
2018-07-22T13:03:00.130Z,6.37
2018-07-22T13:05:27.417Z,6.27
2018-07-22T13:07:54.808Z,6.40
2018-07-22T13:10:22.102Z,5.90
2018-07-22T13:12:49.583Z,5.83
2018-07-22T13:15:16.914Z,5.50
2018-07-22T13:17:44.211Z,5.85
2018-07-22T13:20:11.544Z,5.60
2018-07-22T13:22:38.991Z,6.00
2018-07-22T13:25:06.766Z,5.67
2018-07-22T13:27:34.075Z,6.10
2018-07-22T13:30:01.513Z,5.72
2018-07-22T13:32:28.800Z,5.42
2018-07-22T13:34:56.124Z,5.75
2018-07-22T13:37:23.650Z,5.53
2018-07-22T13:39:52.055Z,5.97
2018-07-22T13:42:19.363Z,5.90
2018-07-22T13:44:46.712Z,5.20
2018-07-22T13:47:14.053Z,5.70
2018-07-22T13:49:41.456Z,6.15
2018-07-22T13:52:08.763Z,6.87
2018-07-22T13:54:36.080Z,5.67
2018-07-22T13:57:03.670Z,5.62
2018-07-22T13:59:31.499Z,6.10
2018-07-22T14:01:58.866Z,5.80
2018-07-22T14:04:27.122Z,5.92
2018-07-22T14:06:55.631Z,5.50
2018-07-22T14:09:22.961Z,5.22
2018-07-22T14:11:50.278Z,5.42
2018-07-22T14:14:17.643Z,5.30
2018-07-22T14:16:44.984Z,5.28
2018-07-22T14:19:12.688Z,5.72
2018-07-22T14:21:45.784Z,5.45
2018-07-22T14:24:13.680Z,5.65
2018-07-22T14:26:41.080Z,5.87
2018-07-22T14:29:08.432Z,5.67
2018-07-22T14:31:35.770Z,4.97
2018-07-22T14:34:03.091Z,5.22
2018-07-22T14:36:30.444Z,5.12
2018-07-22T14:38:57.812Z,5.67
2018-07-22T14:41:25.424Z,5.30
2018-07-22T14:43:52.966Z,5.00
2018-07-22T14:46:20.384Z,5.35
2018-07-22T14:48:47.801Z,5.70
2018-07-22T14:51:15.169Z,5.30
2018-07-22T14:53:42.551Z,5.35
2018-07-22T14:56:09.990Z,5.28
2018-07-22T14:58:37.311Z,5.22
2018-07-22T15:01:04.705Z,5.35
2018-07-22T15:03:32.016Z,5.37
2018-07-22T15:06:00.437Z,5.35
2018-07-22T15:08:27.872Z,5.40
2018-07-22T15:10:55.278Z,5.17
2018-07-22T15:13:22.817Z,5.25
2018-07-22T15:15:50.137Z,5.00
2018-07-22T15:18:17.623Z,5.33
2018-07-22T15:20:44.948Z,5.30
2018-07-22T15:23:13.401Z,4.78
2018-07-22T15:25:40.732Z,5.03
2018-07-22T15:28:08.046Z,4.90
2018-07-22T15:30:35.437Z,5.12
2018-07-22T15:33:02.725Z,5.20
2018-07-22T15:35:30.116Z,5.10
2018-07-22T15:37:57.509Z,5.00
2018-07-22T15:40:25.273Z,5.22
2018-07-22T15:42:52.872Z,5.12
2018-07-22T15:45:20.278Z,5.17
2018-07-22T15:47:47.712Z,5.42
2018-07-22T15:50:15.101Z,5.00
2018-07-22T15:52:42.553Z,4.83
2018-07-22T15:55:10.013Z,4.92
2018-07-22T15:57:37.302Z,4.85
2018-07-22T16:00:05.236Z,5.17
2018-07-22T16:02:32.744Z,5.00
2018-07-22T16:05:00.263Z,5.00
2018-07-22T16:07:27.704Z,4.95
2018-07-22T16:09:55.098Z,5.33
2018-07-22T16:12:22.515Z,4.60
2018-07-22T16:14:49.872Z,5.03
2018-07-22T16:17:17.235Z,4.60
2018-07-22T16:19:44.705Z,5.53
2018-07-22T16:22:12.131Z,4.72
2018-07-22T16:24:39.509Z,4.97
2018-07-22T16:27:06.857Z,4.85
2018-07-22T16:29:34.276Z,4.85
2018-07-22T16:32:01.599Z,4.85
2018-07-22T16:34:28.987Z,5.53
2018-07-22T16:36:56.329Z,4.45
2018-07-22T16:39:28.771Z,5.10
2018-07-22T16:41:56.104Z,5.12
2018-07-22T16:44:23.707Z,5.20
2018-07-22T16:46:51.032Z,5.37
2018-07-22T16:49:18.672Z,5.25
2018-07-22T16:51:45.989Z,5.75
2018-07-22T16:54:13.281Z,5.47
2018-07-22T16:56:40.631Z,5.10
2018-07-22T16:59:07.949Z,5.00
2018-07-22T17:01:35.270Z,5.45
2018-07-22T17:04:02.669Z,5.25
2018-07-22T17:06:30.194Z,5.30
2018-07-22T17:08:58.087Z,5.00
2018-07-22T17:11:25.410Z,5.45
2018-07-22T17:13:52.753Z,5.17
2018-07-22T17:16:20.204Z,5.12
2018-07-22T17:18:47.504Z,5.28
2018-07-22T17:21:14.923Z,4.90
2018-07-22T17:23:42.297Z,5.33
2018-07-22T17:26:09.621Z,5.15
2018-07-22T17:28:36.914Z,5.22
2018-07-22T17:31:04.283Z,5.33
2018-07-22T17:33:31.599Z,5.40
2018-07-22T17:35:58.958Z,5.15
2018-07-22T17:38:26.224Z,5.43
2018-07-22T17:40:53.527Z,5.00
2018-07-22T17:43:20.910Z,5.17
2018-07-22T17:45:48.213Z,5.03
2018-07-22T17:48:15.496Z,5.50
2018-07-22T17:50:42.892Z,5.40
2018-07-22T17:53:10.156Z,5.13
2018-07-22T17:55:37.455Z,5.13
2018-07-22T17:58:04.741Z,5.83
2018-07-22T18:00:32.139Z,5.17
2018-07-22T18:03:33.219Z,5.37
2018-07-22T18:06:00.844Z,5.57
2018-07-22T18:08:28.176Z,5.70
2018-07-22T18:10:57.588Z,5.80
2018-07-22T18:13:24.891Z,6.03
2018-07-22T18:15:52.255Z,5.53
2018-07-22T18:18:19.597Z,5.70
2018-07-22T18:20:47.873Z,5.70
2018-07-22T18:23:15.165Z,5.67
2018-07-22T18:25:43.504Z,5.87
2018-07-22T18:28:11.001Z,5.80
2018-07-22T18:30:38.380Z,5.60
2018-07-22T18:33:05.707Z,5.73
2018-07-22T18:35:33.066Z,5.80
2018-07-22T18:38:00.383Z,5.77
2018-07-22T18:40:27.671Z,5.20
2018-07-22T18:42:55.922Z,5.40
2018-07-22T18:45:23.404Z,5.80
2018-07-22T18:47:51.138Z,5.97
2018-07-22T18:50:18.432Z,5.57
2018-07-22T18:52:45.944Z,5.17
2018-07-22T18:55:13.243Z,5.90
2018-07-22T18:57:41.026Z,5.80
2018-07-22T19:00:08.865Z,5.57
2018-07-22T19:02:36.145Z,5.77
2018-07-22T19:05:03.489Z,5.53
2018-07-22T19:07:30.864Z,5.50
2018-07-22T19:09:58.171Z,5.40
2018-07-22T19:12:25.610Z,5.33
2018-07-22T19:14:52.907Z,4.90
2018-07-22T19:17:20.285Z,5.60
2018-07-22T19:19:47.567Z,5.60
2018-07-22T19:22:15.027Z,5.40
2018-07-22T19:24:42.371Z,5.03
2018-07-22T19:27:09.684Z,5.47
2018-07-22T19:29:37.010Z,5.87
2018-07-22T19:32:04.348Z,5.47
2018-07-22T19:34:31.737Z,5.37
2018-07-22T19:36:59.120Z,5.07
2018-07-22T19:39:26.396Z,5.20
2018-07-22T19:41:53.951Z,5.77
2018-07-22T19:44:21.219Z,5.40
2018-07-22T19:46:48.536Z,5.20
2018-07-22T19:49:15.825Z,6.00
2018-07-22T19:51:43.184Z,5.80
2018-07-22T19:54:10.442Z,5.20
2018-07-22T19:56:38.341Z,5.67
2018-07-22T19:59:05.648Z,5.70
2018-07-22T20:01:37.256Z,5.77
2018-07-22T20:04:04.557Z,5.43
2018-07-22T20:06:31.920Z,5.50
2018-07-22T20:08:59.219Z,5.23
2018-07-22T20:11:26.611Z,5.60
2018-07-22T20:13:53.932Z,5.50
2018-07-22T20:16:21.231Z,5.50
2018-07-22T20:18:48.587Z,5.40
2018-07-22T20:21:15.872Z,5.77
2018-07-22T20:23:43.228Z,5.27
2018-07-22T20:26:10.685Z,5.33
2018-07-22T20:28:38.119Z,5.53
2018-07-22T20:31:05.869Z,6.03
2018-07-22T20:33:33.195Z,5.57
2018-07-22T20:36:00.515Z,5.73
2018-07-22T20:38:27.832Z,5.60
2018-07-22T20:40:55.250Z,6.27
2018-07-22T20:43:22.620Z,6.10
2018-07-22T20:45:49.922Z,6.37
2018-07-22T20:48:17.228Z,5.97
2018-07-22T20:50:44.572Z,6.03
2018-07-22T20:53:11.891Z,6.23
2018-07-22T20:55:39.220Z,6.53
2018-07-22T20:58:06.548Z,6.63
2018-07-22T21:00:33.841Z,6.33
2018-07-22T21:03:01.177Z,6.50
2018-07-22T21:05:28.448Z,5.73
2018-07-22T21:07:55.741Z,5.83
2018-07-22T21:10:23.020Z,5.97
2018-07-22T21:12:56.546Z,6.30
2018-07-22T21:15:23.830Z,6.03
2018-07-22T21:17:51.901Z,5.90
2018-07-22T21:20:20.140Z,6.00
2018-07-22T21:22:47.480Z,6.47
2018-07-22T21:25:15.198Z,6.60
2018-07-22T21:27:42.530Z,6.80
2018-07-22T21:30:10.895Z,7.20
2018-07-22T21:32:38.187Z,6.67
2018-07-22T21:35:05.488Z,6.80
2018-07-22T21:37:32.817Z,6.90
2018-07-22T21:40:00.148Z,6.97
2018-07-22T21:42:27.459Z,6.73
2018-07-22T21:44:54.775Z,6.17
2018-07-22T21:47:22.046Z,6.70
2018-07-22T21:49:49.347Z,6.80
2018-07-22T21:52:16.702Z,6.97
2018-07-22T21:54:44.183Z,6.60
2018-07-22T21:57:11.537Z,5.63
2018-07-22T21:59:38.875Z,6.20
2018-07-22T22:02:06.232Z,5.87
2018-07-22T22:04:33.659Z,6.00
2018-07-22T22:07:00.974Z,5.53
2018-07-22T22:09:28.306Z,5.73
2018-07-22T22:11:55.633Z,5.30
2018-07-22T22:14:23.066Z,5.73
2018-07-22T22:16:50.381Z,5.97
2018-07-22T22:19:17.714Z,6.00
2018-07-22T22:21:47.105Z,6.53
2018-07-22T22:24:14.407Z,6.80
2018-07-22T22:26:41.699Z,7.47
2018-07-22T22:29:09.167Z,6.93
2018-07-22T22:31:36.454Z,6.73
2018-07-22T22:34:03.789Z,7.40
2018-07-22T22:36:31.062Z,7.40
2018-07-22T22:38:58.376Z,7.37
2018-07-22T22:41:25.689Z,7.00
2018-07-22T22:43:53.000Z,6.83
2018-07-22T22:46:20.296Z,8.07
2018-07-22T22:48:47.603Z,7.83
2018-07-22T22:51:14.900Z,7.93
2018-07-22T22:53:42.423Z,7.27
2018-07-22T22:56:09.759Z,7.30
2018-07-22T22:58:42.656Z,7.57
2018-07-22T23:01:09.997Z,7.87
2018-07-22T23:03:37.308Z,7.70
2018-07-22T23:06:04.716Z,7.67
2018-07-22T23:08:32.094Z,7.17
2018-07-22T23:10:59.326Z,7.70
2018-07-22T23:13:26.615Z,7.67
2018-07-22T23:15:53.932Z,7.40
2018-07-22T23:18:21.191Z,7.50
2018-07-22T23:20:48.573Z,7.27
2018-07-22T23:23:15.868Z,7.30
2018-07-22T23:25:43.178Z,7.43
2018-07-22T23:28:10.443Z,7.73
2018-07-22T23:30:37.842Z,7.43
2018-07-22T23:33:10.786Z,7.40
2018-07-22T23:35:38.111Z,7.50
2018-07-22T23:38:05.460Z,7.93
2018-07-22T23:40:32.751Z,7.80
2018-07-22T23:43:00.029Z,7.80
2018-07-22T23:45:27.321Z,7.97
2018-07-22T23:47:54.643Z,7.37
2018-07-22T23:50:21.938Z,7.23
2018-07-22T23:52:49.231Z,7.90
2018-07-22T23:55:16.624Z,7.70
2018-07-22T23:57:43.903Z,8.13
